RDBK12 YSHW-YSHW
Flight info
| Callsign | RDBK12 |
|---|---|
| Flight time | 0h 2m |
| Altitude | 1000 |
| Route | YSHW DCT 340257S1505340E DCT 340317S1505345E DCT 340433S1505300E DCT 340442S1505437E DCT YSHW |
| Aircraft | H60/M-SDFGRY/LB1 |
Departure
| Time | 2026-05-08 04:59 |
|---|---|
| Airport | Holsworthy (Military) Airport (YSHW) |
Arrival
| Time | 2026-05-08 05:01 |
|---|---|
| Airport | Holsworthy (Military) Airport (YSHW) |
| Time | Latitude | Longitude | Altitude | Speed | Heading |
|---|---|---|---|---|---|
| 2026-05-08 04:23 | -33.99474 | 150.95195 | 236 ft | 0 kts | 122° |
| 2026-05-08 04:37 | -33.99474 | 150.95196 | 237 ft | 0 kts | 121° |
| 2026-05-08 04:38 | -33.99474 | 150.95195 | 236 ft | 0 kts | 121° |
| 2026-05-08 04:38 | -33.99478 | 150.95204 | 236 ft | 4 kts | 124° |
| 2026-05-08 04:38 | -33.99501 | 150.95210 | 237 ft | 1 kts | 210° |
| 2026-05-08 04:41 | -33.99514 | 150.95202 | 238 ft | 4 kts | 214° |
| 2026-05-08 04:41 | -33.99535 | 150.95170 | 245 ft | 5 kts | 288° |
| 2026-05-08 04:42 | -33.99530 | 150.95153 | 251 ft | 1 kts | 297° |
| 2026-05-08 04:42 | -33.99484 | 150.95067 | 262 ft | 40 kts | 302° |
| 2026-05-08 04:42 | -33.99276 | 150.94577 | 374 ft | 77 kts | 257° |
| 2026-05-08 04:42 | -33.99569 | 150.94066 | 311 ft | 82 kts | 229° |
| 2026-05-08 04:43 | -33.99958 | 150.93622 | 363 ft | 69 kts | 230° |
| 2026-05-08 04:43 | -34.00252 | 150.93162 | 326 ft | 70 kts | 243° |
| 2026-05-08 04:43 | -34.00639 | 150.92784 | 293 ft | 82 kts | 204° |
| 2026-05-08 04:43 | -34.01206 | 150.92625 | 294 ft | 85 kts | 201° |
| 2026-05-08 04:44 | -34.01812 | 150.92558 | 306 ft | 87 kts | 187° |
| 2026-05-08 04:44 | -34.02396 | 150.92552 | 345 ft | 78 kts | 195° |
| 2026-05-08 04:44 | -34.02894 | 150.92423 | 408 ft | 70 kts | 199° |
| 2026-05-08 04:44 | -34.03322 | 150.92156 | 407 ft | 69 kts | 207° |
| 2026-05-08 04:45 | -34.03725 | 150.91834 | 384 ft | 68 kts | 215° |
| 2026-05-08 04:45 | -34.04118 | 150.91560 | 418 ft | 66 kts | 212° |
| 2026-05-08 04:45 | -34.04584 | 150.91368 | 480 ft | 75 kts | 210° |
| 2026-05-08 04:45 | -34.05145 | 150.91132 | 519 ft | 92 kts | 211° |
| 2026-05-08 04:46 | -34.05542 | 150.90628 | 461 ft | 95 kts | 251° |
| 2026-05-08 04:46 | -34.05811 | 150.89910 | 299 ft | 89 kts | 253° |
| 2026-05-08 04:46 | -34.06177 | 150.89386 | 310 ft | 84 kts | 227° |
| 2026-05-08 04:46 | -34.06631 | 150.88986 | 339 ft | 86 kts | 187° |
| 2026-05-08 04:47 | -34.07224 | 150.89041 | 367 ft | 93 kts | 155° |
| 2026-05-08 04:47 | -34.07760 | 150.88927 | 439 ft | 74 kts | 224° |
| 2026-05-08 04:47 | -34.07796 | 150.88471 | 601 ft | 39 kts | 269° |
| 2026-05-08 04:47 | -34.07741 | 150.88188 | 636 ft | 30 kts | 271° |
| 2026-05-08 04:48 | -34.07711 | 150.87977 | 575 ft | 43 kts | 269° |
| 2026-05-08 04:48 | -34.07401 | 150.87616 | 543 ft | 78 kts | 337° |
| 2026-05-08 04:48 | -34.06765 | 150.87574 | 455 ft | 107 kts | 358° |
| 2026-05-08 04:48 | -34.06119 | 150.88024 | 423 ft | 111 kts | 41° |
| 2026-05-08 04:49 | -34.05599 | 150.88656 | 488 ft | 103 kts | 46° |
| 2026-05-08 04:49 | -34.05109 | 150.89286 | 488 ft | 93 kts | 40° |
| 2026-05-08 04:49 | -34.04608 | 150.89563 | 494 ft | 62 kts | 3° |
| 2026-05-08 04:49 | -34.04214 | 150.89548 | 417 ft | 63 kts | 348° |
| 2026-05-08 04:50 | -34.03911 | 150.89551 | 449 ft | 12 kts | 360° |
| 2026-05-08 04:50 | -34.03890 | 150.89545 | 452 ft | 2 kts | 75° |
| 2026-05-08 04:50 | -34.03878 | 150.89557 | 497 ft | 15 kts | 36° |
| 2026-05-08 04:50 | -34.03806 | 150.89640 | 423 ft | 8 kts | 197° |
| 2026-05-08 04:51 | -34.03976 | 150.89512 | 416 ft | 52 kts | 210° |
| 2026-05-08 04:51 | -34.04416 | 150.89321 | 467 ft | 77 kts | 199° |
| 2026-05-08 04:51 | -34.04821 | 150.89351 | 546 ft | 22 kts | 136° |
| 2026-05-08 04:51 | -34.04849 | 150.89393 | 341 ft | 3 kts | 130° |
| 2026-05-08 04:52 | -34.04839 | 150.89406 | 276 ft | 0 kts | 128° |
| 2026-05-08 04:52 | -34.04839 | 150.89407 | 285 ft | 0 kts | 92° |
| 2026-05-08 04:52 | -34.04838 | 150.89406 | 291 ft | 0 kts | 92° |
| 2026-05-08 04:53 | -34.04822 | 150.89405 | 386 ft | 1 kts | 92° |
| 2026-05-08 04:54 | -34.04820 | 150.89402 | 518 ft | 0 kts | 92° |
| 2026-05-08 04:54 | -34.04820 | 150.89401 | 577 ft | 0 kts | 92° |
| 2026-05-08 04:55 | -34.04820 | 150.89402 | 545 ft | 1 kts | 92° |
| 2026-05-08 04:55 | -34.04820 | 150.89401 | 563 ft | 0 kts | 92° |
| 2026-05-08 04:55 | -34.04818 | 150.89403 | 568 ft | 0 kts | 174° |
| 2026-05-08 04:55 | -34.04868 | 150.89412 | 579 ft | 15 kts | 162° |
| 2026-05-08 04:56 | -34.05081 | 150.89490 | 604 ft | 47 kts | 164° |
| 2026-05-08 04:56 | -34.05402 | 150.89603 | 627 ft | 29 kts | 165° |
| 2026-05-08 04:56 | -34.05422 | 150.89606 | 613 ft | 2 kts | 124° |
| 2026-05-08 04:56 | -34.05430 | 150.89668 | 619 ft | 25 kts | 122° |
| 2026-05-08 04:57 | -34.05561 | 150.89783 | 594 ft | 9 kts | 210° |
| 2026-05-08 04:57 | -34.05565 | 150.89781 | 570 ft | 0 kts | 230° |
| 2026-05-08 04:57 | -34.05537 | 150.89747 | 593 ft | 20 kts | 224° |
| 2026-05-08 04:57 | -34.05476 | 150.89670 | 588 ft | 0 kts | 178° |
| 2026-05-08 04:58 | -34.05477 | 150.89670 | 550 ft | 1 kts | 188° |
| 2026-05-08 04:58 | -34.05476 | 150.89671 | 555 ft | 0 kts | 150° |
| 2026-05-08 04:58 | -34.05486 | 150.89678 | 549 ft | 11 kts | 150° |
| 2026-05-08 04:59 | -34.05634 | 150.89702 | 658 ft | 29 kts | 198° |
| 2026-05-08 04:59 | -34.05711 | 150.89471 | 659 ft | 43 kts | 301° |
| 2026-05-08 04:59 | -34.05535 | 150.89088 | 777 ft | 65 kts | 327° |
| 2026-05-08 04:59 | -34.05078 | 150.89097 | 806 ft | 72 kts | 73° |
| 2026-05-08 05:00 | -34.05047 | 150.89623 | 748 ft | 68 kts | 147° |
| 2026-05-08 05:00 | -34.05460 | 150.89829 | 652 ft | 67 kts | 210° |
| 2026-05-08 05:00 | -34.05855 | 150.89582 | 636 ft | 62 kts | 226° |
| 2026-05-08 05:00 | -34.06239 | 150.89313 | 645 ft | 65 kts | 220° |
| 2026-05-08 05:01 | -34.06609 | 150.89025 | 696 ft | 64 kts | 220° |
| 2026-05-08 05:01 | -34.06845 | 150.88831 | 691 ft | 60 kts | 220° |
| 2026-05-08 05:01 | -34.07223 | 150.88505 | 889 ft | 40 kts | 220° |
| 2026-05-08 05:01 | -34.07366 | 150.88391 | 880 ft | 39 kts | 220° |
| 2026-05-08 05:02 | -34.07726 | 150.88102 | 796 ft | 81 kts | 234° |
| 2026-05-08 05:02 | -34.07848 | 150.87722 | 748 ft | 37 kts | 8° |
| 2026-05-08 05:02 | -34.07509 | 150.87751 | 667 ft | 46 kts | 22° |
| 2026-05-08 05:02 | -34.07271 | 150.87806 | 572 ft | 30 kts | 19° |
| 2026-05-08 05:03 | -34.07147 | 150.87849 | 553 ft | 4 kts | 34° |
| 2026-05-08 05:03 | -34.07150 | 150.87817 | 622 ft | 3 kts | 31° |
| 2026-05-08 05:03 | -34.07118 | 150.87896 | 646 ft | 26 kts | 72° |
| 2026-05-08 05:03 | -34.07128 | 150.88143 | 637 ft | 37 kts | 112° |
| 2026-05-08 05:04 | -34.07209 | 150.88503 | 737 ft | 43 kts | 139° |
| 2026-05-08 05:04 | -34.07369 | 150.88686 | 715 ft | 18 kts | 183° |
| 2026-05-08 05:04 | -34.07388 | 150.88697 | 657 ft | 0 kts | 190° |
| 2026-05-08 05:04 | -34.07390 | 150.88696 | 640 ft | 3 kts | 187° |
| 2026-05-08 05:05 | -34.07497 | 150.88668 | 700 ft | 20 kts | 196° |
| 2026-05-08 05:05 | -34.07580 | 150.88632 | 691 ft | 5 kts | 205° |
| 2026-05-08 05:05 | -34.07648 | 150.88523 | 677 ft | 21 kts | 260° |
| 2026-05-08 05:05 | -34.07651 | 150.88355 | 683 ft | 19 kts | 272° |
| 2026-05-08 05:06 | -34.07649 | 150.88316 | 724 ft | 0 kts | 262° |
| 2026-05-08 05:06 | -34.07649 | 150.88317 | 737 ft | 0 kts | 282° |
| 2026-05-08 05:06 | -34.07658 | 150.88314 | 735 ft | 11 kts | 287° |
| 2026-05-08 05:06 | -34.07710 | 150.88294 | 684 ft | 0 kts | 295° |
| 2026-05-08 05:07 | -34.07710 | 150.88295 | 678 ft | 0 kts | 287° |
| 2026-05-08 05:07 | -34.07709 | 150.88294 | 680 ft | 0 kts | 329° |
| 2026-05-08 05:07 | -34.07708 | 150.88294 | 679 ft | 0 kts | 82° |
| 2026-05-08 05:08 | -34.07715 | 150.88308 | 663 ft | 11 kts | 117° |
| 2026-05-08 05:08 | -34.07772 | 150.88462 | 674 ft | 34 kts | 111° |
| 2026-05-08 05:08 | -34.07750 | 150.88940 | 755 ft | 87 kts | 92° |
| 2026-05-08 05:08 | -34.07706 | 150.89727 | 921 ft | 94 kts | 94° |
| 2026-05-08 05:09 | -34.07670 | 150.90435 | 852 ft | 55 kts | 94° |
| 2026-05-08 05:09 | -34.07676 | 150.90694 | 782 ft | 14 kts | 94° |
| 2026-05-08 05:09 | -34.07682 | 150.90736 | 804 ft | 1 kts | 48° |
| 2026-05-08 05:09 | -34.07684 | 150.90734 | 850 ft | 0 kts | 43° |
| 2026-05-08 05:10 | -34.07685 | 150.90733 | 849 ft | 1 kts | 43° |
| 2026-05-08 05:10 | -34.07686 | 150.90731 | 832 ft | 2 kts | 43° |
| 2026-05-08 05:10 | -34.07547 | 150.90886 | 816 ft | 53 kts | 43° |
| 2026-05-08 05:11 | -34.07146 | 150.91260 | 841 ft | 83 kts | 33° |
| 2026-05-08 05:11 | -34.06683 | 150.91666 | 830 ft | 81 kts | 21° |
| 2026-05-08 05:11 | -34.06209 | 150.91939 | 826 ft | 71 kts | 14° |
| 2026-05-08 05:11 | -34.05713 | 150.92211 | 817 ft | 88 kts | 14° |
| 2026-05-08 05:12 | -34.05178 | 150.92487 | 828 ft | 79 kts | 14° |
| 2026-05-08 05:12 | -34.04690 | 150.92786 | 822 ft | 85 kts | 13° |
| 2026-05-08 05:12 | -34.04080 | 150.93020 | 826 ft | 98 kts | 7° |
| 2026-05-08 05:12 | -34.03450 | 150.93243 | 830 ft | 81 kts | 7° |
| 2026-05-08 05:13 | -34.02972 | 150.93472 | 832 ft | 77 kts | 7° |
| 2026-05-08 05:13 | -34.02508 | 150.93732 | 814 ft | 77 kts | 6° |
| 2026-05-08 05:13 | -34.01984 | 150.93881 | 682 ft | 84 kts | 340° |
| 2026-05-08 05:13 | -34.01379 | 150.93838 | 662 ft | 88 kts | 357° |
| 2026-05-08 05:14 | -34.00810 | 150.94019 | 654 ft | 83 kts | 57° |
| 2026-05-08 05:14 | -34.00441 | 150.94582 | 634 ft | 81 kts | 75° |
| 2026-05-08 05:14 | -34.00427 | 150.95186 | 635 ft | 74 kts | 126° |
| 2026-05-08 05:14 | -34.00576 | 150.95782 | 672 ft | 77 kts | 76° |
| 2026-05-08 05:15 | -34.00226 | 150.96105 | 566 ft | 66 kts | 322° |
| 2026-05-08 05:15 | -33.99928 | 150.95808 | 464 ft | 47 kts | 305° |
| 2026-05-08 05:15 | -33.99777 | 150.95579 | 310 ft | 29 kts | 304° |
| 2026-05-08 05:15 | -33.99703 | 150.95459 | 247 ft | 3 kts | 303° |
| 2026-05-08 05:16 | -33.99665 | 150.95389 | 251 ft | 13 kts | 303° |
| 2026-05-08 05:16 | -33.99618 | 150.95302 | 249 ft | 10 kts | 304° |
| 2026-05-08 05:16 | -33.99571 | 150.95223 | 250 ft | 11 kts | 303° |
| 2026-05-08 05:16 | -33.99516 | 150.95201 | 245 ft | 9 kts | 27° |
| 2026-05-08 05:17 | -33.99498 | 150.95239 | 246 ft | 3 kts | 129° |
| 2026-05-08 05:17 | -33.99503 | 150.95248 | 242 ft | 0 kts | 124° |